Time;durP1;ratioP1;P1;durP2;ratioP2;P2;SDS_P1;SDS_P2;PMS_P1;PMS_P2;Temp;Humidity;BMP_temperature;BMP_pressure;BME280_temperature;BME280_humidity;BME280_pressure;Samples;Min_cycle;Max_cycle;Signal;HPM_P1;HPM_P2
2021/05/28 00:00:48;;;;;;;26.17;11.82;;;12.90;99.90;;;;;;5101222;28;20088;-87
2021/05/28 00:03:17;;;;;;;26.17;13.13;;;12.90;99.90;;;;;;5079964;28;20052;-88
2021/05/28 00:05:45;;;;;;;24.38;12.82;;;12.90;99.90;;;;;;5104311;28;20043;-86
2021/05/28 00:08:13;;;;;;;24.67;13.63;;;12.90;99.90;;;;;;5080587;28;20056;-87
2021/05/28 00:10:42;;;;;;;24.05;13.93;;;12.80;99.90;;;;;;5107792;28;20051;-87
2021/05/28 00:13:12;;;;;;;25.52;14.82;;;12.80;99.90;;;;;;5084302;28;20044;-87
2021/05/28 00:15:41;;;;;;;26.77;14.77;;;12.80;99.90;;;;;;5076358;28;20379;-88
2021/05/28 00:18:11;;;;;;;26.98;14.60;;;12.80;99.90;;;;;;5078517;28;20045;-87
2021/05/28 00:20:39;;;;;;;31.10;17.85;;;12.70;99.90;;;;;;5083959;28;20048;-87
2021/05/28 00:23:07;;;;;;;28.27;15.90;;;12.70;99.90;;;;;;5093820;28;20052;-89
2021/05/28 00:25:35;;;;;;;28.55;16.80;;;12.60;99.90;;;;;;5081772;28;20043;-86
2021/05/28 00:28:03;;;;;;;36.78;19.00;;;12.60;99.90;;;;;;5062447;28;20374;-87
2021/05/28 00:30:31;;;;;;;35.00;18.88;;;12.60;99.90;;;;;;5086319;28;20052;-87
2021/05/28 00:33:01;;;;;;;34.80;18.42;;;12.60;99.90;;;;;;5071423;28;20052;-87
2021/05/28 00:35:28;;;;;;;36.85;21.05;;;12.60;99.90;;;;;;5095013;28;20380;-88
2021/05/28 00:37:57;;;;;;;33.65;18.20;;;12.50;99.90;;;;;;5079514;28;20057;-88
2021/05/28 00:40:25;;;;;;;30.23;19.00;;;12.50;99.90;;;;;;5072226;28;20056;-87
2021/05/28 00:42:54;;;;;;;28.90;18.08;;;12.50;99.90;;;;;;5083941;28;20056;-86
2021/05/28 00:45:22;;;;;;;29.40;17.27;;;12.50;99.90;;;;;;5080527;28;20075;-87
2021/05/28 00:47:50;;;;;;;35.88;19.77;;;12.50;99.90;;;;;;5090139;28;20048;-87
2021/05/28 00:50:18;;;;;;;36.47;19.67;;;12.50;99.90;;;;;;5090914;28;20049;-87
2021/05/28 00:52:52;;;;;;;32.47;18.60;;;12.50;99.90;;;;;;5079299;28;20040;-86
2021/05/28 00:55:20;;;;;;;35.90;19.73;;;12.50;99.90;;;;;;5096374;28;20479;-86
2021/05/28 00:57:48;;;;;;;36.10;19.83;;;12.50;99.90;;;;;;5097425;28;20297;-87
2021/05/28 01:00:18;;;;;;;36.20;21.67;;;12.40;99.90;;;;;;5070626;28;20049;-87
2021/05/28 01:02:45;;;;;;;32.70;18.98;;;12.40;99.90;;;;;;5093456;28;20056;-87
2021/05/28 01:05:14;;;;;;;33.33;19.45;;;12.40;99.90;;;;;;5096265;28;20056;-87
2021/05/28 01:07:42;;;;;;;30.77;17.67;;;12.40;99.90;;;;;;5094057;28;20111;-86
2021/05/28 01:10:11;;;;;;;40.45;20.70;;;12.20;99.90;;;;;;5063508;28;20043;-88
2021/05/28 01:12:39;;;;;;;35.95;19.60;;;12.40;99.90;;;;;;5075611;28;20052;-86
2021/05/28 01:15:10;;;;;;;31.17;17.85;;;12.40;99.90;;;;;;5086225;28;20048;-88
2021/05/28 01:17:40;;;;;;;32.10;19.30;;;12.40;99.90;;;;;;5101459;28;20051;-86
2021/05/28 01:20:10;;;;;;;37.70;20.75;;;12.30;99.90;;;;;;5091347;28;20048;-85
2021/05/28 01:22:39;;;;;;;38.67;19.17;;;12.30;99.90;;;;;;5111893;28;20052;-84
2021/05/28 01:25:34;;;;;;;35.33;19.60;;;12.40;99.90;;;;;;5074309;28;20059;-87
2021/05/28 01:28:03;;;;;;;37.50;19.63;;;12.30;99.90;;;;;;5076278;28;20063;-87
2021/05/28 01:30:31;;;;;;;37.72;19.38;;;12.30;99.90;;;;;;5088650;28;20052;-86
2021/05/28 01:32:59;;;;;;;32.63;17.90;;;12.50;99.90;;;;;;5075828;28;20055;-87
2021/05/28 01:35:27;;;;;;;35.70;19.83;;;12.30;99.90;;;;;;5085356;28;20254;-87
2021/05/28 01:37:56;;;;;;;33.40;19.98;;;12.30;99.90;;;;;;5084860;28;20047;-88
2021/05/28 01:40:25;;;;;;;31.48;19.48;;;12.30;99.90;;;;;;5068709;28;20052;-86
2021/05/28 01:42:54;;;;;;;33.53;18.08;;;12.20;99.90;;;;;;5075399;28;20048;-86
2021/05/28 01:45:22;;;;;;;32.92;20.08;;;12.20;99.90;;;;;;5088068;28;20056;-86
2021/05/28 01:47:50;;;;;;;33.78;19.60;;;12.20;99.90;;;;;;5098088;28;20479;-88
2021/05/28 01:50:18;;;;;;;34.97;21.88;;;12.20;99.90;;;;;;5074790;28;20044;-86
2021/05/28 01:52:46;;;;;;;35.50;19.88;;;12.20;99.90;;;;;;5102603;28;20498;-87
2021/05/28 01:55:15;;;;;;;34.35;17.58;;;12.10;99.90;;;;;;5074787;28;20495;-88
2021/05/28 01:57:43;;;;;;;35.80;18.70;;;12.00;99.90;;;;;;5092213;28;20044;-88
2021/05/28 02:00:14;;;;;;;29.67;17.77;;;12.00;99.90;;;;;;5093357;28;20048;-87
2021/05/28 02:02:42;;;;;;;;;;;12.00;99.90;;;;;;5067146;28;20052;-86
2021/05/28 02:05:10;;;;;;;27.60;14.95;;;12.00;99.90;;;;;;5100895;28;19920;-87
2021/05/28 02:07:38;;;;;;;28.95;17.13;;;12.00;99.90;;;;;;5093770;28;20495;-87
2021/05/28 02:10:07;;;;;;;35.88;17.40;;;11.90;99.90;;;;;;5071088;28;20049;-86
2021/05/28 02:12:35;;;;;;;25.60;13.98;;;11.90;99.90;;;;;;5082099;28;20059;-87
2021/05/28 02:15:04;;;;;;;30.38;17.27;;;11.90;99.90;;;;;;5091649;28;20044;-88
2021/05/28 02:17:32;;;;;;;29.25;16.40;;;11.80;99.90;;;;;;5066610;28;20581;-86
2021/05/28 02:19:59;;;;;;;27.75;16.00;;;11.90;99.90;;;;;;5092898;28;20056;-86
2021/05/28 02:22:27;;;;;;;31.73;16.85;;;11.80;99.90;;;;;;5063358;28;20060;-86
2021/05/28 02:24:54;;;;;;;32.58;15.50;;;11.90;99.90;;;;;;5089784;28;20044;-87
2021/05/28 02:27:22;;;;;;;28.17;16.90;;;11.90;99.90;;;;;;5071855;28;20499;-86
2021/05/28 02:29:52;;;;;;;27.15;15.60;;;11.90;99.90;;;;;;5055685;28;20052;-89
2021/05/28 02:32:19;;;;;;;26.88;14.13;;;11.90;99.90;;;;;;5072042;28;20067;-88
2021/05/28 02:34:47;;;;;;;28.35;15.15;;;11.90;99.90;;;;;;5082385;28;20094;-88
2021/05/28 02:37:15;;;;;;;29.27;14.40;;;11.80;99.90;;;;;;5087177;28;20049;-86
2021/05/28 02:39:42;;;;;;;28.08;13.77;;;11.90;99.90;;;;;;5079913;28;20051;-85
2021/05/28 02:42:11;;;;;;;25.65;13.52;;;11.90;99.90;;;;;;5082870;28;20056;-87
2021/05/28 02:44:40;;;;;;;25.42;14.68;;;11.80;99.90;;;;;;5089624;28;20060;-86
2021/05/28 02:47:08;;;;;;;25.40;13.48;;;11.80;99.90;;;;;;5078272;28;20514;-86
2021/05/28 02:49:36;;;;;;;25.77;14.07;;;11.80;99.90;;;;;;5087935;28;20055;-86
2021/05/28 02:52:04;;;;;;;28.70;12.02;;;11.80;99.90;;;;;;5087175;28;20048;-86
2021/05/28 02:54:33;;;;;;;23.38;11.35;;;11.80;99.90;;;;;;5087132;28;20048;-86
2021/05/28 02:57:01;;;;;;;30.05;13.25;;;11.80;99.90;;;;;;5078108;28;20052;-86
2021/05/28 02:59:29;;;;;;;23.08;12.07;;;11.80;99.90;;;;;;5086010;28;20052;-87
2021/05/28 03:01:56;;;;;;;26.58;14.50;;;11.80;99.90;;;;;;5089666;28;20586;-86
2021/05/28 03:04:24;;;;;;;35.97;13.88;;;11.70;99.90;;;;;;5071785;28;20079;-86
2021/05/28 03:06:52;;;;;;;23.27;11.55;;;11.70;99.90;;;;;;5087897;28;20531;-86
2021/05/28 03:09:20;;;;;;;21.45;11.23;;;11.80;99.90;;;;;;5088461;28;20052;-86
2021/05/28 03:11:47;;;;;;;20.85;11.45;;;11.70;99.90;;;;;;5085152;28;20480;-86
2021/05/28 03:14:17;;;;;;;33.00;12.32;;;11.70;99.90;;;;;;5070901;28;20082;-87
2021/05/28 03:16:45;;;;;;;27.00;11.23;;;11.60;99.90;;;;;;5068789;28;20051;-85
2021/05/28 03:19:20;;;;;;;20.60;10.80;;;11.70;99.90;;;;;;5070580;28;20061;-86
2021/05/28 03:24:35;;;;;;;29.83;13.05;;;11.70;99.90;;;;;;5083382;28;20067;-86
2021/05/28 03:27:03;;;;;;;21.65;10.10;;;11.70;99.90;;;;;;5074104;28;20051;-87
2021/05/28 03:29:31;;;;;;;25.92;11.75;;;11.70;99.90;;;;;;5082429;28;20052;-86
2021/05/28 03:31:59;;;;;;;20.73;10.43;;;11.80;99.90;;;;;;5083370;28;20047;-85
2021/05/28 03:34:27;;;;;;;30.13;9.80;;;11.70;99.90;;;;;;5093336;28;20056;-86
2021/05/28 03:36:55;;;;;;;26.65;11.63;;;11.80;99.90;;;;;;5089742;28;20052;-86
2021/05/28 03:39:22;;;;;;;24.77;10.57;;;11.80;99.90;;;;;;5076571;28;20090;-86
2021/05/28 03:41:50;;;;;;;21.35;11.35;;;11.80;99.90;;;;;;5072454;28;20062;-86
2021/05/28 03:44:18;;;;;;;21.98;10.45;;;11.80;99.90;;;;;;5078738;28;20453;-86
2021/05/28 03:46:45;;;;;;;22.58;11.20;;;11.80;99.90;;;;;;5078112;28;20056;-87
2021/05/28 03:49:13;;;;;;;24.23;11.02;;;11.80;99.90;;;;;;5084147;28;20052;-86
2021/05/28 03:51:41;;;;;;;38.55;11.05;;;11.80;99.90;;;;;;5079871;28;20048;-87
2021/05/28 03:54:09;;;;;;;28.15;12.35;;;11.80;99.90;;;;;;5087670;28;20051;-87
2021/05/28 03:56:36;;;;;;;28.42;11.43;;;11.80;99.90;;;;;;5084877;28;20051;-86
2021/05/28 03:59:04;;;;;;;22.52;11.70;;;11.80;99.90;;;;;;5061020;28;20484;-86
2021/05/28 04:01:32;;;;;;;25.10;10.35;;;11.80;99.90;;;;;;5100864;28;20054;-87
2021/05/28 04:03:59;;;;;;;24.08;10.63;;;11.80;99.90;;;;;;5093775;28;20066;-87
2021/05/28 04:06:27;;;;;;;21.85;10.02;;;11.80;99.90;;;;;;5076184;28;20555;-86
2021/05/28 04:08:55;;;;;;;27.23;12.23;;;11.80;99.90;;;;;;5081891;28;20052;-87
2021/05/28 04:11:23;;;;;;;24.20;11.35;;;11.80;99.90;;;;;;5071728;28;20640;-86
2021/05/28 04:13:51;;;;;;;28.08;11.57;;;11.80;99.90;;;;;;5088503;28;20061;-87
2021/05/28 04:16:19;;;;;;;25.00;11.10;;;11.80;99.90;;;;;;5042260;28;20040;-86
2021/05/28 04:18:47;;;;;;;38.92;19.20;;;11.80;99.90;;;;;;5061432;28;20052;-87
2021/05/28 04:21:15;;;;;;;55.45;28.33;;;11.80;99.90;;;;;;5064505;28;20040;-88
2021/05/28 04:23:42;;;;;;;59.97;28.50;;;11.80;99.90;;;;;;5078817;28;20052;-87
2021/05/28 04:26:10;;;;;;;81.20;32.53;;;11.80;99.90;;;;;;5083937;28;20052;-87
2021/05/28 04:28:38;;;;;;;55.88;27.40;;;11.80;99.90;;;;;;5081638;28;20048;-87
2021/05/28 04:31:08;;;;;;;39.30;21.00;;;11.80;99.90;;;;;;5067599;28;20122;-87
2021/05/28 04:33:37;;;;;;;33.97;14.80;;;11.80;99.90;;;;;;5067384;28;20390;-87
2021/05/28 04:36:06;;;;;;;29.98;14.10;;;11.80;99.90;;;;;;5068863;28;20048;-86
2021/05/28 04:38:36;;;;;;;27.95;13.48;;;11.80;99.90;;;;;;5066031;28;20052;-87
2021/05/28 04:41:04;;;;;;;30.23;14.88;;;11.80;99.90;;;;;;5066514;28;20053;-87
2021/05/28 04:43:31;;;;;;;40.63;17.95;;;11.70;99.90;;;;;;5064870;28;20055;-86
2021/05/28 04:45:59;;;;;;;32.40;15.05;;;11.80;99.90;;;;;;5062338;28;20047;-87
2021/05/28 04:48:27;;;;;;;26.80;13.82;;;11.90;99.90;;;;;;5063886;28;20056;-87
2021/05/28 04:50:55;;;;;;;24.58;12.45;;;11.90;99.90;;;;;;5053438;28;20047;-87
2021/05/28 04:53:22;;;;;;;26.98;13.18;;;11.90;99.90;;;;;;5064207;28;20057;-87
2021/05/28 04:55:50;;;;;;;34.60;14.90;;;11.90;99.90;;;;;;5055818;28;20049;-87
2021/05/28 04:58:18;;;;;;;26.98;11.82;;;12.00;99.90;;;;;;5048614;28;20488;-86
2021/05/28 05:00:45;;;;;;;23.30;12.88;;;12.00;99.90;;;;;;5045482;28;20051;-86
2021/05/28 05:03:13;;;;;;;27.48;12.70;;;12.00;99.90;;;;;;5059511;28;20056;-88
2021/05/28 05:05:41;;;;;;;25.98;11.77;;;12.10;99.90;;;;;;5059686;28;20087;-87
2021/05/28 05:08:09;;;;;;;26.58;11.93;;;12.10;99.90;;;;;;5061606;28;20480;-86
2021/05/28 05:10:37;;;;;;;26.20;14.75;;;12.20;99.90;;;;;;5048472;28;20049;-86
2021/05/28 05:13:13;;;;;;;23.58;12.25;;;12.20;99.90;;;;;;5061610;28;20476;-88
2021/05/28 05:15:41;;;;;;;27.13;15.43;;;12.40;99.90;;;;;;5055415;28;20484;-89
2021/05/28 05:18:10;;;;;;;38.47;14.25;;;12.40;99.90;;;;;;5050372;28;20053;-86
2021/05/28 05:20:38;;;;;;;27.52;14.90;;;12.40;99.90;;;;;;5056284;28;20048;-87
2021/05/28 05:23:07;;;;;;;28.75;12.55;;;12.50;99.90;;;;;;5055455;28;20048;-86
2021/05/28 05:25:35;;;;;;;32.67;12.93;;;12.60;99.90;;;;;;5060136;28;20052;-87
2021/05/28 05:28:03;;;;;;;28.17;13.73;;;12.60;99.90;;;;;;5051216;28;20045;-87
2021/05/28 05:30:31;;;;;;;27.60;12.88;;;12.70;99.90;;;;;;5060212;28;20056;-87
2021/05/28 05:32:59;;;;;;;27.85;12.52;;;12.70;99.90;;;;;;5059942;28;20051;-88
2021/05/28 05:35:26;;;;;;;29.92;12.70;;;12.90;99.90;;;;;;5062462;28;20052;-86
2021/05/28 05:37:54;;;;;;;28.10;14.20;;;12.80;99.90;;;;;;5059401;28;20060;-87
2021/05/28 05:40:22;;;;;;;29.88;12.23;;;12.90;99.90;;;;;;5065657;28;20075;-88
2021/05/28 05:42:50;;;;;;;24.77;10.77;;;13.00;99.90;;;;;;5064369;28;20048;-87
2021/05/28 05:45:18;;;;;;;23.38;11.27;;;13.00;99.90;;;;;;5067997;28;20044;-86
2021/05/28 05:47:47;;;;;;;24.95;10.10;;;13.10;99.90;;;;;;5068850;28;20048;-87
2021/05/28 05:50:16;;;;;;;23.25;10.82;;;13.10;99.90;;;;;;5048836;28;20041;-88
2021/05/28 05:52:44;;;;;;;19.85;10.15;;;13.20;99.90;;;;;;5050885;28;20053;-87
2021/05/28 05:55:12;;;;;;;24.23;12.68;;;13.20;99.90;;;;;;5071059;28;20121;-86
2021/05/28 05:57:40;;;;;;;20.10;9.93;;;13.30;99.90;;;;;;5069141;28;20044;-86
2021/05/28 06:00:08;;;;;;;19.30;10.32;;;13.30;99.90;;;;;;5069875;28;20060;-86
2021/05/28 06:02:37;;;;;;;20.58;9.75;;;13.30;99.90;;;;;;5069782;28;20053;-87
2021/05/28 06:05:06;;;;;;;19.90;10.50;;;13.40;99.90;;;;;;5064217;28;20045;-88
2021/05/28 06:07:34;;;;;;;20.38;10.55;;;13.40;99.90;;;;;;5070729;28;20051;-87
2021/05/28 06:10:02;;;;;;;24.17;9.10;;;13.60;99.90;;;;;;5070286;28;20064;-86
2021/05/28 06:12:30;;;;;;;18.05;7.30;;;13.50;99.90;;;;;;5069091;28;20040;-87
2021/05/28 06:14:57;;;;;;;25.85;9.82;;;13.60;99.90;;;;;;5066447;28;20091;-88
2021/05/28 06:17:25;;;;;;;20.45;8.57;;;13.60;99.90;;;;;;5066917;28;20048;-88
2021/05/28 06:19:53;;;;;;;18.95;8.82;;;13.60;99.90;;;;;;5055534;28;20058;-87
2021/05/28 06:22:26;;;;;;;17.60;8.30;;;13.80;99.90;;;;;;5066587;28;20055;-84
2021/05/28 06:24:54;;;;;;;19.05;9.05;;;13.80;99.90;;;;;;5064063;28;20045;-86
2021/05/28 06:27:22;;;;;;;17.27;7.85;;;13.90;99.90;;;;;;5065497;28;20053;-87
2021/05/28 06:29:49;;;;;;;18.45;8.13;;;14.00;99.90;;;;;;5065185;28;20044;-90
2021/05/28 06:32:17;;;;;;;17.52;8.95;;;14.00;99.90;;;;;;5052174;28;20064;-87
2021/05/28 06:34:45;;;;;;;17.45;9.35;;;14.10;99.90;;;;;;5072686;28;20052;-89
2021/05/28 06:37:13;;;;;;;16.67;9.32;;;14.20;99.90;;;;;;5067136;28;20484;-87
2021/05/28 06:39:40;;;;;;;17.00;9.40;;;14.30;99.90;;;;;;5071830;28;20064;-85
2021/05/28 06:42:08;;;;;;;14.90;8.65;;;14.40;99.90;;;;;;5061352;28;20591;-86
2021/05/28 06:44:36;;;;;;;18.83;9.07;;;14.50;99.90;;;;;;5055335;28;20047;-86
2021/05/28 06:47:04;;;;;;;16.40;7.95;;;14.60;99.90;;;;;;5065712;28;20405;-86
2021/05/28 06:49:31;;;;;;;15.90;7.55;;;14.70;99.90;;;;;;5064815;28;20053;-86
2021/05/28 06:51:59;;;;;;;17.65;8.10;;;14.70;99.90;;;;;;5064693;28;20503;-86
2021/05/28 06:54:29;;;;;;;16.88;8.30;;;14.70;99.90;;;;;;5054378;28;20072;-87
2021/05/28 06:56:57;;;;;;;14.75;8.23;;;14.70;99.90;;;;;;5070548;28;20056;-88
2021/05/28 06:59:25;;;;;;;17.02;7.90;;;14.70;99.90;;;;;;5056734;28;20056;-88
2021/05/28 07:01:54;;;;;;;21.92;9.05;;;14.80;99.90;;;;;;5070184;28;20064;-88
2021/05/28 07:04:25;;;;;;;23.93;10.10;;;14.80;99.90;;;;;;5049546;28;20063;-89
2021/05/28 07:06:53;;;;;;;19.33;8.63;;;14.70;99.90;;;;;;5047508;28;20306;-89
2021/05/28 07:09:23;;;;;;;20.35;8.57;;;14.80;99.90;;;;;;5047765;28;20053;-90
2021/05/28 07:11:51;;;;;;;18.48;8.45;;;14.80;99.90;;;;;;5064765;28;20412;-89
2021/05/28 07:14:21;;;;;;;15.55;8.10;;;14.90;99.90;;;;;;5063639;28;20063;-88
2021/05/28 07:16:49;;;;;;;16.88;8.50;;;15.00;99.90;;;;;;5065420;28;20060;-88
2021/05/28 07:19:17;;;;;;;14.15;8.38;;;15.10;99.90;;;;;;5064860;28;20061;-88
2021/05/28 07:21:45;;;;;;;18.77;9.02;;;15.10;99.90;;;;;;5079943;28;20484;-88
2021/05/28 07:24:13;;;;;;;26.52;10.73;;;15.20;99.90;;;;;;5053537;28;20057;-89
2021/05/28 07:26:42;;;;;;;17.92;8.10;;;15.20;99.90;;;;;;5052086;28;20048;-90
2021/05/28 07:29:14;;;;;;;14.68;8.02;;;15.30;99.90;;;;;;5063354;28;20060;-91
2021/05/28 07:31:42;;;;;;;18.55;9.15;;;15.30;99.90;;;;;;5069624;28;20506;-90
2021/05/28 07:34:10;;;;;;;18.70;9.35;;;15.40;99.90;;;;;;5053248;28;20545;-90
2021/05/28 07:36:38;;;;;;;17.50;8.43;;;15.40;99.90;;;;;;5065889;28;20432;-90
2021/05/28 07:39:06;;;;;;;17.73;7.63;;;15.50;99.90;;;;;;5050527;28;20044;-90
2021/05/28 07:41:36;;;;;;;17.65;8.55;;;15.60;99.90;;;;;;5051302;28;20056;-90
2021/05/28 07:44:06;;;;;;;20.48;9.35;;;15.70;99.90;;;;;;5067738;28;20056;-90
2021/05/28 07:46:40;;;;;;;20.38;9.95;;;15.80;99.90;;;;;;5051333;28;20045;-90
2021/05/28 07:49:08;;;;;;;19.27;10.80;;;15.90;99.90;;;;;;5032986;28;20041;-90
2021/05/28 07:51:36;;;;;;;17.98;9.82;;;15.90;99.90;;;;;;5074931;28;20052;-89
2021/05/28 07:54:05;;;;;;;27.83;10.25;;;16.00;99.90;;;;;;5067070;28;20043;-90
2021/05/28 07:56:34;;;;;;;17.95;9.30;;;16.10;99.90;;;;;;5060366;28;20064;-90
2021/05/28 07:59:04;;;;;;;15.63;8.50;;;16.20;99.90;;;;;;5044139;28;20053;-91
2021/05/28 08:01:32;;;;;;;17.58;9.80;;;16.30;99.90;;;;;;5068460;28;20414;-90
2021/05/28 08:04:00;;;;;;;19.75;9.82;;;16.30;99.90;;;;;;5076862;28;20024;-90
2021/05/28 08:06:29;;;;;;;21.55;9.85;;;16.50;99.90;;;;;;5070474;28;20040;-90
2021/05/28 08:08:57;;;;;;;16.27;8.75;;;16.60;99.90;;;;;;5057980;28;20055;-89
2021/05/28 08:11:25;;;;;;;19.17;8.68;;;16.60;99.90;;;;;;5062226;28;20056;-90
2021/05/28 08:13:53;;;;;;;20.00;10.02;;;16.70;99.90;;;;;;5037290;28;20056;-89
2021/05/28 08:16:21;;;;;;;22.40;9.55;;;16.80;99.90;;;;;;5047762;28;20052;-89
2021/05/28 08:18:49;;;;;;;17.23;8.90;;;16.80;99.90;;;;;;5054234;28;20043;-90
2021/05/28 08:21:17;;;;;;;21.67;8.30;;;16.90;99.90;;;;;;5055337;28;20662;-90
2021/05/28 08:23:44;;;;;;;19.70;9.95;;;17.00;99.90;;;;;;5073121;28;20051;-90
2021/05/28 08:26:14;;;;;;;17.50;8.20;;;17.00;99.90;;;;;;5063043;28;20056;-90
2021/05/28 08:28:42;;;;;;;18.95;8.20;;;17.00;99.90;;;;;;5071953;28;20041;-90
2021/05/28 08:31:10;;;;;;;16.33;7.78;;;17.00;99.90;;;;;;5064766;28;20044;-89
2021/05/28 08:33:39;;;;;;;16.25;8.32;;;17.10;99.90;;;;;;5077028;28;20057;-89
2021/05/28 08:36:07;;;;;;;16.73;7.90;;;17.10;99.90;;;;;;5083820;28;20440;-89
2021/05/28 08:38:34;;;;;;;16.35;7.95;;;17.20;99.90;;;;;;5036352;28;20068;-89
2021/05/28 08:41:02;;;;;;;16.92;8.15;;;17.30;99.90;;;;;;5037596;28;20061;-89
2021/05/28 08:43:31;;;;;;;22.50;7.80;;;17.40;99.90;;;;;;5050044;28;20044;-89
2021/05/28 08:46:06;;;;;;;11.73;6.43;;;17.50;99.90;;;;;;5083949;28;20048;-90
2021/05/28 08:48:34;;;;;;;13.82;7.13;;;17.60;99.90;;;;;;5053165;28;20472;-90
2021/05/28 08:51:02;;;;;;;14.55;7.18;;;17.70;99.90;;;;;;5059082;28;20515;-90
2021/05/28 08:53:30;;;;;;;20.20;7.47;;;17.70;99.90;;;;;;5036074;28;20048;-90
2021/05/28 08:56:00;;;;;;;13.88;8.70;;;17.80;99.90;;;;;;5072185;28;20052;-90
2021/05/28 08:58:28;;;;;;;14.50;6.50;;;17.90;99.90;;;;;;5064033;28;20055;-90
2021/05/28 09:00:57;;;;;;;12.25;6.25;;;18.00;99.90;;;;;;5058482;28;20489;-89
2021/05/28 09:03:29;;;;;;;12.98;6.93;;;18.10;99.90;;;;;;5069834;28;20049;-90
2021/05/28 09:05:59;;;;;;;18.83;7.97;;;18.10;99.90;;;;;;5070366;28;20045;-90
2021/05/28 09:08:29;;;;;;;14.15;7.20;;;18.20;99.90;;;;;;5064055;28;20056;-89
2021/05/28 09:11:09;;;;;;;17.17;7.53;;;18.30;99.90;;;;;;5066434;28;20053;-90
2021/05/28 09:13:44;;;;;;;16.00;8.35;;;18.30;99.90;;;;;;5066308;28;20602;-89
2021/05/28 09:16:17;;;;;;;21.20;9.05;;;18.50;99.90;;;;;;5067063;28;20060;-91
2021/05/28 09:18:58;;;;;;;11.80;6.53;;;18.50;99.90;;;;;;5061678;28;20036;-90
2021/05/28 09:21:31;;;;;;;18.65;5.47;;;18.50;99.90;;;;;;5058033;28;20029;-90
2021/05/28 09:24:04;;;;;;;13.50;5.57;;;18.60;99.90;;;;;;5074315;28;20044;-89
2021/05/28 09:26:36;;;;;;;12.88;5.53;;;18.60;99.90;;;;;;5044094;28;20484;-89
2021/05/28 09:29:06;;;;;;;10.65;5.53;;;18.70;99.90;;;;;;5063129;28;20057;-89
2021/05/28 09:31:35;;;;;;;16.35;6.03;;;18.80;99.90;;;;;;5062371;28;20056;-90
2021/05/28 09:34:04;;;;;;;16.25;5.80;;;18.80;99.90;;;;;;5058652;28;20071;-89
2021/05/28 09:36:37;;;;;;;16.00;5.88;;;18.80;99.90;;;;;;5076166;28;20055;-89
2021/05/28 09:39:11;;;;;;;13.20;6.45;;;18.80;99.90;;;;;;5079419;28;20052;-89
2021/05/28 09:41:51;;;;;;;16.50;7.18;;;18.90;99.90;;;;;;5083479;28;20063;-90
2021/05/28 09:44:23;;;;;;;14.05;6.57;;;19.10;99.90;;;;;;5063535;28;20060;-90
2021/05/28 09:46:57;;;;;;;16.17;6.07;;;19.20;99.90;;;;;;5071354;28;20048;-90
2021/05/28 09:49:26;;;;;;;13.80;7.05;;;19.40;99.90;;;;;;5036330;28;20064;-89
2021/05/28 09:52:05;;;;;;;24.50;9.77;;;19.50;99.90;;;;;;5070122;28;20056;-91
2021/05/28 09:54:33;;;;;;;24.50;9.48;;;19.50;99.90;;;;;;5069809;28;20052;-91
2021/05/28 09:57:01;;;;;;;21.65;9.07;;;19.60;99.90;;;;;;5080602;28;20053;-91
2021/05/28 09:59:45;;;;;;;18.05;8.85;;;19.60;99.90;;;;;;5071574;28;20044;-92
2021/05/28 10:03:03;;;;;;;19.77;9.02;;;19.70;99.90;;;;;;5083212;28;20056;-90
2021/05/28 10:05:26;;;;;;;18.02;9.18;;;19.70;99.90;;;;;;5060229;28;20051;-90
2021/05/28 10:07:54;;;;;;;15.35;8.07;;;19.80;99.90;;;;;;5071954;28;20052;-91
2021/05/28 10:10:23;;;;;;;16.92;8.27;;;19.90;99.90;;;;;;5036076;28;20048;-89
2021/05/28 10:12:51;;;;;;;20.08;8.05;;;20.00;99.90;;;;;;5067227;28;20076;-89
2021/05/28 10:15:19;;;;;;;12.00;6.70;;;20.00;99.90;;;;;;5050560;28;20044;-90
2021/05/28 10:17:47;;;;;;;14.15;6.65;;;20.00;99.90;;;;;;5038069;28;20043;-90
2021/05/28 10:20:14;;;;;;;13.73;7.18;;;20.20;99.90;;;;;;5072328;28;20045;-90
2021/05/28 10:22:43;;;;;;;14.50;6.07;;;20.30;99.90;;;;;;5066377;28;20548;-90
2021/05/28 10:25:11;;;;;;;15.48;6.55;;;20.40;99.90;;;;;;5042445;28;20047;-91
2021/05/28 10:27:39;;;;;;;18.50;6.85;;;20.60;99.90;;;;;;5035544;28;20428;-91
2021/05/28 10:30:13;;;;;;;14.95;6.65;;;20.70;99.90;;;;;;5067137;28;20060;-90
2021/05/28 10:32:41;;;;;;;18.25;7.20;;;20.90;99.90;;;;;;5046043;28;20057;-91
2021/05/28 10:35:17;;;;;;;13.73;6.60;;;21.00;99.90;;;;;;5075011;28;20483;-91
2021/05/28 10:37:46;;;;;;;16.20;6.68;;;21.10;99.90;;;;;;5058275;28;20052;-90
2021/05/28 10:40:31;;;;;;;14.88;7.07;;;21.30;99.90;;;;;;5055150;28;20052;-90
2021/05/28 10:43:05;;;;;;;18.95;6.35;;;21.40;99.90;;;;;;5094966;28;20053;-90
2021/05/28 10:46:02;;;;;;;12.38;5.45;;;21.40;99.90;;;;;;5086392;28;20044;-89
2021/05/28 10:48:40;;;;;;;13.43;6.15;;;21.40;99.90;;;;;;5062844;28;20053;-90
2021/05/28 10:51:24;;;;;;;9.00;5.68;;;21.50;99.60;;;;;;5071556;28;20495;-90
2021/05/28 10:53:52;;;;;;;14.98;6.85;;;21.50;99.90;;;;;;5087410;28;20053;-90
2021/05/28 10:56:25;;;;;;;14.73;6.70;;;21.50;99.80;;;;;;5069556;28;20049;-89
2021/05/28 10:58:57;;;;;;;13.77;5.28;;;21.60;99.50;;;;;;5068967;28;20521;-89
2021/05/28 11:01:51;;;;;;;11.35;5.65;;;21.60;98.90;;;;;;5072796;28;20044;-89
2021/05/28 11:04:43;;;;;;;15.63;6.47;;;21.70;98.60;;;;;;5053970;28;20132;-89
2021/05/28 11:07:10;;;;;;;;;;;21.70;99.00;;;;;;5048601;28;20036;-89
2021/05/28 11:09:51;;;;;;;12.00;7.45;;;21.70;98.00;;;;;;5078654;28;19925;-91
2021/05/28 11:12:25;;;;;;;13.82;6.35;;;21.60;97.70;;;;;;5069477;28;20056;-89
2021/05/28 11:15:08;;;;;;;15.20;7.00;;;21.60;98.60;;;;;;5069713;28;20412;-89
2021/05/28 11:18:00;;;;;;;16.98;6.65;;;21.80;98.10;;;;;;5056292;28;20060;-91
2021/05/28 11:20:37;;;;;;;13.07;5.93;;;21.80;98.20;;;;;;5030776;28;20075;-90
2021/05/28 11:23:13;;;;;;;13.82;6.88;;;21.90;97.60;;;;;;5033389;28;20089;-89
2021/05/28 11:25:52;;;;;;;17.13;6.85;;;22.00;98.10;;;;;;5068197;28;20084;-90
2021/05/28 11:28:20;;;;;;;15.43;6.00;;;22.10;97.80;;;;;;5066098;28;20586;-91
2021/05/28 11:30:54;;;;;;;15.45;5.47;;;22.20;97.40;;;;;;5070995;28;20575;-91
2021/05/28 11:33:38;;;;;;;14.60;6.25;;;22.30;97.40;;;;;;5051355;28;20064;-91
2021/05/28 11:36:32;;;;;;;16.70;6.20;;;22.40;96.20;;;;;;5066671;28;20056;-86
2021/05/28 11:39:06;;;;;;;13.88;6.22;;;22.60;96.80;;;;;;5073686;28;20060;-92
2021/05/28 11:42:01;;;;;;;13.30;5.35;;;22.70;96.70;;;;;;5061364;28;20767;-94
2021/05/28 11:44:34;;;;;;;16.27;5.65;;;22.70;95.90;;;;;;5051260;28;20383;-89
2021/05/28 11:47:05;;;;;;;10.07;5.43;;;22.80;96.20;;;;;;5066286;28;20060;-90
2021/05/28 11:49:38;;;;;;;10.68;4.45;;;22.80;95.90;;;;;;5059912;28;20053;-92
2021/05/28 11:52:09;;;;;;;11.00;4.50;;;22.90;95.60;;;;;;5036232;28;20052;-88
2021/05/28 11:54:39;;;;;;;13.20;7.07;;;23.00;95.30;;;;;;5050982;28;20408;-90
2021/05/28 11:57:12;;;;;;;11.07;5.00;;;23.00;94.90;;;;;;5060695;28;20599;-88
2021/05/28 11:59:49;;;;;;;10.35;4.93;;;23.00;94.30;;;;;;5051414;28;20052;-90
2021/05/28 12:02:37;;;;;;;11.35;4.97;;;23.10;93.50;;;;;;5056046;28;20056;-87
2021/05/28 12:05:22;;;;;;;5.75;3.22;;;23.10;93.10;;;;;;5068278;28;20239;-86
2021/05/28 12:07:51;;;;;;;8.05;4.00;;;23.10;92.70;;;;;;5053013;28;20052;-87
2021/05/28 12:10:20;;;;;;;8.63;4.03;;;23.10;93.00;;;;;;5052769;28;20560;-86
2021/05/28 12:12:53;;;;;;;10.82;3.67;;;23.00;92.20;;;;;;5063937;28;20385;-88
2021/05/28 12:15:30;;;;;;;8.63;4.85;;;23.00;91.80;;;;;;5066038;28;20056;-88
2021/05/28 12:18:01;;;;;;;5.50;2.65;;;22.90;90.70;;;;;;5070691;28;20514;-89
2021/05/28 12:20:31;;;;;;;5.85;2.78;;;22.80;91.30;;;;;;5067498;28;20053;-84
2021/05/28 12:23:06;;;;;;;7.82;3.13;;;22.80;90.20;;;;;;5032951;28;20055;-88
2021/05/28 12:25:37;;;;;;;6.80;2.50;;;22.70;88.00;;;;;;5049419;28;20115;-90
2021/05/28 12:28:08;;;;;;;;;;;22.60;86.40;;;;;;5047035;28;20052;-92
2021/05/28 12:30:36;;;;;;;6.47;2.47;;;22.60;82.90;;;;;;5045770;28;19929;-89
2021/05/28 12:33:04;;;;;;;7.85;2.63;;;22.50;86.50;;;;;;5040185;28;20402;-91
2021/05/28 12:35:32;;;;;;;7.50;2.38;;;22.50;85.90;;;;;;5067338;28;20479;-85
2021/05/28 12:38:11;;;;;;;12.10;3.10;;;22.40;85.40;;;;;;5054198;28;20052;-85
2021/05/28 12:40:46;;;;;;;8.02;3.42;;;22.40;85.00;;;;;;5064714;28;20048;-84
2021/05/28 12:43:37;;;;;;;8.55;3.72;;;22.40;85.10;;;;;;5072814;28;20052;-85
2021/05/28 12:46:05;;;;;;;9.07;3.85;;;22.30;84.80;;;;;;5071621;28;20870;-85
2021/05/28 12:48:48;;;;;;;11.00;4.63;;;22.30;86.20;;;;;;5079271;28;20412;-85
2021/05/28 12:51:18;;;;;;;10.07;4.50;;;22.30;87.40;;;;;;5074114;28;20060;-85